sensor_id;sensor_type;location;lat;lon;timestamp;pressure;altitude;pressure_sealevel;temperature;humidity
48790;BME280;41718;51.980;5.734;2023-07-16T00:03:31;100920.16;;;16.43;100.00
48790;BME280;41718;51.980;5.734;2023-07-16T00:08:33;100919.25;;;16.52;100.00
48790;BME280;41718;51.980;5.734;2023-07-16T00:13:34;100902.69;;;16.50;100.00
48790;BME280;41718;51.980;5.734;2023-07-16T00:18:36;100877.44;;;16.52;100.00
48790;BME280;41718;51.980;5.734;2023-07-16T00:23:38;100859.06;;;16.62;100.00
48790;BME280;41718;51.980;5.734;2023-07-16T00:28:39;100846.03;;;16.56;100.00
48790;BME280;41718;51.980;5.734;2023-07-16T00:33:41;100836.63;;;16.40;100.00
48790;BME280;41718;51.980;5.734;2023-07-16T00:38:44;100838.41;;;16.33;100.00
48790;BME280;41718;51.980;5.734;2023-07-16T00:43:47;100836.88;;;16.11;100.00
48790;BME280;41718;51.980;5.734;2023-07-16T00:48:49;100849.03;;;16.15;100.00
48790;BME280;41718;51.980;5.734;2023-07-16T00:53:51;100854.22;;;16.20;100.00
48790;BME280;41718;51.980;5.734;2023-07-16T00:58:53;100859.44;;;16.20;100.00
48790;BME280;41718;51.980;5.734;2023-07-16T01:03:54;100866.25;;;16.36;100.00
48790;BME280;41718;51.980;5.734;2023-07-16T01:09:16;100854.81;;;16.52;100.00
48790;BME280;41718;51.980;5.734;2023-07-16T01:14:21;100852.13;;;16.55;100.00
48790;BME280;41718;51.980;5.734;2023-07-16T01:19:23;100839.97;;;16.54;100.00
48790;BME280;41718;51.980;5.734;2023-07-16T01:30:02;100834.09;;;16.34;100.00
48790;BME280;41718;51.980;5.734;2023-07-16T01:35:05;100838.47;;;16.29;100.00
48790;BME280;41718;51.980;5.734;2023-07-16T01:40:08;100836.78;;;16.23;100.00
48790;BME280;41718;51.980;5.734;2023-07-16T01:45:10;100833.44;;;16.07;100.00
48790;BME280;41718;51.980;5.734;2023-07-16T01:50:12;100827.41;;;16.01;100.00
48790;BME280;41718;51.980;5.734;2023-07-16T01:55:13;100830.00;;;16.02;100.00
48790;BME280;41718;51.980;5.734;2023-07-16T02:00:15;100827.44;;;15.96;100.00
48790;BME280;41718;51.980;5.734;2023-07-16T02:05:17;100831.00;;;15.83;100.00
48790;BME280;41718;51.980;5.734;2023-07-16T02:10:19;100825.84;;;15.74;100.00
48790;BME280;41718;51.980;5.734;2023-07-16T02:15:20;100829.38;;;15.68;100.00
48790;BME280;41718;51.980;5.734;2023-07-16T02:20:22;100835.44;;;15.69;100.00
48790;BME280;41718;51.980;5.734;2023-07-16T02:25:24;100828.53;;;15.66;100.00
48790;BME280;41718;51.980;5.734;2023-07-16T02:30:26;100833.72;;;15.64;100.00
48790;BME280;41718;51.980;5.734;2023-07-16T02:35:28;100839.81;;;15.60;100.00
48790;BME280;41718;51.980;5.734;2023-07-16T02:40:30;100834.66;;;15.50;100.00
48790;BME280;41718;51.980;5.734;2023-07-16T02:45:32;100839.00;;;15.51;100.00
48790;BME280;41718;51.980;5.734;2023-07-16T02:50:34;100840.78;;;15.44;100.00
48790;BME280;41718;51.980;5.734;2023-07-16T02:55:36;100843.44;;;15.29;100.00
48790;BME280;41718;51.980;5.734;2023-07-16T03:00:38;100833.91;;;15.26;100.00
48790;BME280;41718;51.980;5.734;2023-07-16T03:05:40;100844.34;;;15.28;100.00
48790;BME280;41718;51.980;5.734;2023-07-16T03:10:41;100857.41;;;15.17;100.00
48790;BME280;41718;51.980;5.734;2023-07-16T03:15:43;100866.09;;;15.18;100.00
48790;BME280;41718;51.980;5.734;2023-07-16T03:20:44;100866.09;;;15.11;100.00
48790;BME280;41718;51.980;5.734;2023-07-16T03:25:46;100871.34;;;15.02;100.00
48790;BME280;41718;51.980;5.734;2023-07-16T03:30:49;100877.41;;;15.12;100.00
48790;BME280;41718;51.980;5.734;2023-07-16T03:35:51;100882.59;;;15.14;100.00
48790;BME280;41718;51.980;5.734;2023-07-16T03:40:52;100879.13;;;15.08;100.00
48790;BME280;41718;51.980;5.734;2023-07-16T03:45:54;100886.94;;;15.18;100.00
48790;BME280;41718;51.980;5.734;2023-07-16T03:50:56;100897.31;;;15.25;100.00
48790;BME280;41718;51.980;5.734;2023-07-16T03:55:57;100902.53;;;15.33;100.00
48790;BME280;41718;51.980;5.734;2023-07-16T04:00:59;100895.53;;;15.40;100.00
48790;BME280;41718;51.980;5.734;2023-07-16T04:06:05;100895.56;;;15.35;100.00
48790;BME280;41718;51.980;5.734;2023-07-16T04:11:07;100896.44;;;15.35;100.00
48790;BME280;41718;51.980;5.734;2023-07-16T04:16:08;100896.44;;;15.31;100.00
48790;BME280;41718;51.980;5.734;2023-07-16T04:21:10;100911.19;;;15.40;100.00
48790;BME280;41718;51.980;5.734;2023-07-16T04:26:12;100915.53;;;15.39;100.00
48790;BME280;41718;51.980;5.734;2023-07-16T04:31:14;100924.22;;;15.41;100.00
48790;BME280;41718;51.980;5.734;2023-07-16T04:36:16;100925.09;;;15.40;100.00
48790;BME280;41718;51.980;5.734;2023-07-16T04:41:18;100924.16;;;15.52;100.00
48790;BME280;41718;51.980;5.734;2023-07-16T04:46:19;100924.13;;;15.69;100.00
48790;BME280;41718;51.980;5.734;2023-07-16T04:51:21;100926.69;;;15.78;100.00
48790;BME280;41718;51.980;5.734;2023-07-16T04:56:23;100918.94;;;15.67;100.00
48790;BME280;41718;51.980;5.734;2023-07-16T05:01:24;100923.28;;;15.53;100.00
48790;BME280;41718;51.980;5.734;2023-07-16T05:06:28;100924.16;;;15.52;100.00
48790;BME280;41718;51.980;5.734;2023-07-16T05:11:29;100924.97;;;15.75;100.00
48790;BME280;41718;51.980;5.734;2023-07-16T05:16:31;100930.13;;;15.86;100.00
48790;BME280;41718;51.980;5.734;2023-07-16T05:21:33;100932.69;;;15.95;100.00
48790;BME280;41718;51.980;5.734;2023-07-16T05:26:34;100931.66;;;16.16;100.00
48790;BME280;41718;51.980;5.734;2023-07-16T05:31:36;100937.75;;;16.23;100.00
48790;BME280;41718;51.980;5.734;2023-07-16T05:36:37;100934.22;;;16.27;100.00
48790;BME280;41718;51.980;5.734;2023-07-16T05:41:39;100936.03;;;16.17;100.00
48790;BME280;41718;51.980;5.734;2023-07-16T05:46:41;100947.19;;;16.40;100.00
48790;BME280;41718;51.980;5.734;2023-07-16T05:51:43;100951.47;;;16.44;100.00
48790;BME280;41718;51.980;5.734;2023-07-16T05:56:44;100953.13;;;16.59;100.00
48790;BME280;41718;51.980;5.734;2023-07-16T06:01:46;100958.44;;;16.49;100.00
48790;BME280;41718;51.980;5.734;2023-07-16T06:06:47;100959.19;;;16.63;100.00
48790;BME280;41718;51.980;5.734;2023-07-16T06:11:53;100958.22;;;16.78;100.00
48790;BME280;41718;51.980;5.734;2023-07-16T06:16:54;100957.25;;;16.88;100.00
48790;BME280;41718;51.980;5.734;2023-07-16T06:21:57;100970.41;;;16.77;100.00
48790;BME280;41718;51.980;5.734;2023-07-16T06:26:59;100958.81;;;17.06;100.00
48790;BME280;41718;51.980;5.734;2023-07-16T06:32:04;100952.34;;;17.42;100.00
48790;BME280;41718;51.980;5.734;2023-07-16T06:37:06;100947.22;;;17.33;100.00
48790;BME280;41718;51.980;5.734;2023-07-16T06:42:08;100948.16;;;17.26;100.00
48790;BME280;41718;51.980;5.734;2023-07-16T06:47:10;100935.41;;;17.69;100.00
48790;BME280;41718;51.980;5.734;2023-07-16T06:52:20;100941.47;;;17.77;100.00
48790;BME280;41718;51.980;5.734;2023-07-16T06:57:23;100943.00;;;17.92;100.00
48790;BME280;41718;51.980;5.734;2023-07-16T07:02:25;100946.50;;;17.91;100.00
48790;BME280;41718;51.980;5.734;2023-07-16T07:07:27;100957.75;;;17.97;100.00
48790;BME280;41718;51.980;5.734;2023-07-16T07:12:28;100959.28;;;18.15;100.00
48790;BME280;41718;51.980;5.734;2023-07-16T07:17:30;100953.88;;;18.24;100.00
48790;BME280;41718;51.980;5.734;2023-07-16T07:22:31;100948.34;;;18.43;100.00
48790;BME280;41718;51.980;5.734;2023-07-16T07:27:33;100965.66;;;18.53;100.00
48790;BME280;41718;51.980;5.734;2023-07-16T07:32:36;100969.34;;;18.41;100.00
48790;BME280;41718;51.980;5.734;2023-07-16T07:37:38;100969.00;;;18.63;100.00
48790;BME280;41718;51.980;5.734;2023-07-16T07:42:40;100975.38;;;18.46;100.00
48790;BME280;41718;51.980;5.734;2023-07-16T07:47:42;100991.66;;;18.65;100.00
48790;BME280;41718;51.980;5.734;2023-07-16T07:52:43;100994.28;;;18.65;100.00
48790;BME280;41718;51.980;5.734;2023-07-16T07:57:45;101001.72;;;18.93;100.00
48790;BME280;41718;51.980;5.734;2023-07-16T08:02:46;100980.22;;;19.23;100.00
48790;BME280;41718;51.980;5.734;2023-07-16T08:07:48;100985.25;;;19.79;100.00
48790;BME280;41718;51.980;5.734;2023-07-16T08:12:50;100996.94;;;19.16;100.00
48790;BME280;41718;51.980;5.734;2023-07-16T08:17:51;100989.25;;;19.53;100.00
48790;BME280;41718;51.980;5.734;2023-07-16T08:22:53;100995.38;;;19.96;100.00
48790;BME280;41718;51.980;5.734;2023-07-16T08:27:55;100997.69;;;19.71;100.00
48790;BME280;41718;51.980;5.734;2023-07-16T08:32:57;100999.22;;;19.81;100.00
48790;BME280;41718;51.980;5.734;2023-07-16T08:37:58;101005.47;;;19.75;100.00
48790;BME280;41718;51.980;5.734;2023-07-16T08:43:00;101004.06;;;19.56;100.00
48790;BME280;41718;51.980;5.734;2023-07-16T08:48:02;101012.84;;;19.55;100.00
48790;BME280;41718;51.980;5.734;2023-07-16T08:53:04;101019.53;;;19.25;100.00
48790;BME280;41718;51.980;5.734;2023-07-16T08:58:06;101022.72;;;19.42;100.00
48790;BME280;41718;51.980;5.734;2023-07-16T09:03:08;101020.47;;;19.69;100.00
48790;BME280;41718;51.980;5.734;2023-07-16T09:08:11;101016.53;;;19.45;100.00
48790;BME280;41718;51.980;5.734;2023-07-16T09:13:18;101019.66;;;19.65;100.00
48790;BME280;41718;51.980;5.734;2023-07-16T09:18:24;101025.44;;;19.36;100.00
48790;BME280;41718;51.980;5.734;2023-07-16T09:23:27;101041.72;;;19.07;100.00
48790;BME280;41718;51.980;5.734;2023-07-16T09:28:32;101042.28;;;19.23;100.00
48790;BME280;41718;51.980;5.734;2023-07-16T09:33:34;101056.41;;;19.16;100.00
48790;BME280;41718;51.980;5.734;2023-07-16T09:38:36;101054.06;;;18.99;100.00
48790;BME280;41718;51.980;5.734;2023-07-16T09:43:40;101058.25;;;19.12;100.00
48790;BME280;41718;51.980;5.734;2023-07-16T09:48:42;101053.97;;;19.54;100.00
48790;BME280;41718;51.980;5.734;2023-07-16T09:53:44;101042.94;;;19.83;100.00
48790;BME280;41718;51.980;5.734;2023-07-16T09:58:48;101054.50;;;20.57;100.00
48790;BME280;41718;51.980;5.734;2023-07-16T10:03:52;101064.78;;;20.27;100.00
48790;BME280;41718;51.980;5.734;2023-07-16T10:08:53;101093.88;;;20.18;100.00
48790;BME280;41718;51.980;5.734;2023-07-16T10:13:55;101108.50;;;19.88;100.00
48790;BME280;41718;51.980;5.734;2023-07-16T10:18:58;101107.00;;;20.20;100.00
48790;BME280;41718;51.980;5.734;2023-07-16T10:24:02;101118.25;;;20.25;100.00
48790;BME280;41718;51.980;5.734;2023-07-16T10:29:04;101124.34;;;19.83;100.00
48790;BME280;41718;51.980;5.734;2023-07-16T10:34:06;101141.19;;;19.72;100.00
48790;BME280;41718;51.980;5.734;2023-07-16T10:39:07;101155.59;;;19.96;100.00
48790;BME280;41718;51.980;5.734;2023-07-16T10:44:13;101151.88;;;20.07;100.00
48790;BME280;41718;51.980;5.734;2023-07-16T10:49:26;101145.09;;;20.41;100.00
48790;BME280;41718;51.980;5.734;2023-07-16T10:54:28;101140.38;;;20.15;100.00
48790;BME280;41718;51.980;5.734;2023-07-16T10:59:31;101161.91;;;19.87;100.00
48790;BME280;41718;51.980;5.734;2023-07-16T11:04:35;101168.09;;;19.83;100.00
48790;BME280;41718;51.980;5.734;2023-07-16T11:09:46;101173.94;;;19.48;100.00
48790;BME280;41718;51.980;5.734;2023-07-16T11:14:53;101174.34;;;19.77;100.00
48790;BME280;41718;51.980;5.734;2023-07-16T11:19:55;101181.44;;;19.72;100.00
48790;BME280;41718;51.980;5.734;2023-07-16T11:24:57;101178.31;;;20.00;100.00
48790;BME280;41718;51.980;5.734;2023-07-16T11:30:00;101185.66;;;19.81;100.00
48790;BME280;41718;51.980;5.734;2023-07-16T11:35:03;101195.03;;;19.94;100.00
48790;BME280;41718;51.980;5.734;2023-07-16T11:40:09;101200.13;;;20.03;100.00
48790;BME280;41718;51.980;5.734;2023-07-16T11:45:16;101209.44;;;20.21;100.00
48790;BME280;41718;51.980;5.734;2023-07-16T11:50:19;101214.31;;;19.93;100.00
48790;BME280;41718;51.980;5.734;2023-07-16T11:55:24;101237.34;;;20.27;100.00
48790;BME280;41718;51.980;5.734;2023-07-16T12:00:26;101222.59;;;20.66;100.00
48790;BME280;41718;51.980;5.734;2023-07-16T12:05:27;101207.84;;;20.57;100.00
48790;BME280;41718;51.980;5.734;2023-07-16T12:10:49;101217.88;;;20.82;100.00
48790;BME280;41718;51.980;5.734;2023-07-16T12:15:51;101226.72;;;20.33;100.00
48790;BME280;41718;51.980;5.734;2023-07-16T12:20:53;101234.41;;;19.96;100.00
48790;BME280;41718;51.980;5.734;2023-07-16T12:25:54;101242.41;;;20.81;100.00
48790;BME280;41718;51.980;5.734;2023-07-16T12:30:56;101242.09;;;21.72;100.00
48790;BME280;41718;51.980;5.734;2023-07-16T12:35:57;101229.34;;;21.18;100.00
48790;BME280;41718;51.980;5.734;2023-07-16T12:41:02;101240.03;;;21.85;100.00
48790;BME280;41718;51.980;5.734;2023-07-16T12:46:04;101235.38;;;21.60;100.00
48790;BME280;41718;51.980;5.734;2023-07-16T12:51:06;101236.56;;;21.83;100.00
48790;BME280;41718;51.980;5.734;2023-07-16T12:56:08;101229.09;;;21.66;100.00
48790;BME280;41718;51.980;5.734;2023-07-16T13:01:09;101242.25;;;21.29;100.00
48790;BME280;41718;51.980;5.734;2023-07-16T13:06:11;101260.69;;;20.88;100.00
48790;BME280;41718;51.980;5.734;2023-07-16T13:11:14;101247.50;;;20.48;100.00
48790;BME280;41718;51.980;5.734;2023-07-16T13:16:16;101281.56;;;20.54;100.00
48790;BME280;41718;51.980;5.734;2023-07-16T13:21:18;101299.06;;;20.55;100.00
48790;BME280;41718;51.980;5.734;2023-07-16T13:26:20;101292.06;;;21.38;100.00
48790;BME280;41718;51.980;5.734;2023-07-16T13:31:21;101272.50;;;21.50;100.00
48790;BME280;41718;51.980;5.734;2023-07-16T13:36:23;101260.53;;;21.72;100.00
48790;BME280;41718;51.980;5.734;2023-07-16T13:41:25;101248.88;;;21.82;100.00
48790;BME280;41718;51.980;5.734;2023-07-16T13:46:26;101258.44;;;21.51;100.00
48790;BME280;41718;51.980;5.734;2023-07-16T13:51:28;101254.09;;;21.85;100.00
48790;BME280;41718;51.980;5.734;2023-07-16T13:56:30;101225.16;;;22.18;100.00
48790;BME280;41718;51.980;5.734;2023-07-16T14:01:31;101188.28;;;22.47;100.00
48790;BME280;41718;51.980;5.734;2023-07-16T14:06:33;101208.66;;;21.76;100.00
48790;BME280;41718;51.980;5.734;2023-07-16T14:11:34;101198.38;;;21.99;100.00
48790;BME280;41718;51.980;5.734;2023-07-16T14:16:38;101212.97;;;21.78;100.00
48790;BME280;41718;51.980;5.734;2023-07-16T14:21:40;101215.00;;;22.35;100.00
48790;BME280;41718;51.980;5.734;2023-07-16T14:26:42;101214.47;;;22.22;100.00
48790;BME280;41718;51.980;5.734;2023-07-16T14:31:44;101227.38;;;21.65;100.00
48790;BME280;41718;51.980;5.734;2023-07-16T14:36:45;101222.34;;;21.54;100.00
48790;BME280;41718;51.980;5.734;2023-07-16T14:41:47;101240.53;;;21.29;100.00
48790;BME280;41718;51.980;5.734;2023-07-16T14:46:49;101238.88;;;21.24;100.00
48790;BME280;41718;51.980;5.734;2023-07-16T14:51:50;101226.44;;;21.30;100.00
48790;BME280;41718;51.980;5.734;2023-07-16T14:56:53;101209.75;;;22.01;100.00
48790;BME280;41718;51.980;5.734;2023-07-16T15:01:54;101198.91;;;21.45;100.00
48790;BME280;41718;51.980;5.734;2023-07-16T15:06:56;101205.38;;;21.66;100.00
48790;BME280;41718;51.980;5.734;2023-07-16T15:11:58;101193.31;;;21.91;100.00
48790;BME280;41718;51.980;5.734;2023-07-16T15:16:59;101201.41;;;21.84;100.00
48790;BME280;41718;51.980;5.734;2023-07-16T15:22:01;101203.34;;;21.77;100.00
48790;BME280;41718;51.980;5.734;2023-07-16T15:27:02;101208.00;;;22.02;100.00
48790;BME280;41718;51.980;5.734;2023-07-16T15:32:06;101214.28;;;22.29;100.00
48790;BME280;41718;51.980;5.734;2023-07-16T15:37:07;101222.66;;;21.78;100.00
48790;BME280;41718;51.980;5.734;2023-07-16T15:42:10;101238.56;;;21.37;100.00
48790;BME280;41718;51.980;5.734;2023-07-16T15:47:14;101247.94;;;21.49;100.00
48790;BME280;41718;51.980;5.734;2023-07-16T15:52:16;101245.72;;;20.90;100.00
48790;BME280;41718;51.980;5.734;2023-07-16T15:57:19;101245.03;;;21.23;100.00
48790;BME280;41718;51.980;5.734;2023-07-16T16:02:21;101238.03;;;20.81;100.00
48790;BME280;41718;51.980;5.734;2023-07-16T16:07:23;101235.59;;;21.12;100.00
48790;BME280;41718;51.980;5.734;2023-07-16T16:12:24;101231.31;;;21.08;100.00
48790;BME280;41718;51.980;5.734;2023-07-16T16:17:26;101234.88;;;21.06;100.00
48790;BME280;41718;51.980;5.734;2023-07-16T16:22:28;101237.63;;;20.59;100.00
48790;BME280;41718;51.980;5.734;2023-07-16T16:27:29;101233.59;;;20.40;100.00
48790;BME280;41718;51.980;5.734;2023-07-16T16:32:31;101221.13;;;20.51;100.00
48790;BME280;41718;51.980;5.734;2023-07-16T16:37:32;101221.72;;;20.64;100.00
48790;BME280;41718;51.980;5.734;2023-07-16T16:42:37;101213.84;;;20.64;100.00
48790;BME280;41718;51.980;5.734;2023-07-16T16:47:39;101221.09;;;20.53;100.00
48790;BME280;41718;51.980;5.734;2023-07-16T16:52:41;101225.88;;;20.76;100.00
48790;BME280;41718;51.980;5.734;2023-07-16T16:57:43;101222.38;;;20.77;100.00
48790;BME280;41718;51.980;5.734;2023-07-16T17:02:45;101227.31;;;20.90;100.00
48790;BME280;41718;51.980;5.734;2023-07-16T17:07:46;101213.03;;;21.41;100.00
48790;BME280;41718;51.980;5.734;2023-07-16T17:12:52;101208.56;;;21.06;100.00
48790;BME280;41718;51.980;5.734;2023-07-16T17:17:53;101216.09;;;21.21;100.00
48790;BME280;41718;51.980;5.734;2023-07-16T17:23:00;101205.50;;;21.24;100.00
48790;BME280;41718;51.980;5.734;2023-07-16T17:28:01;101198.34;;;21.31;100.00
48790;BME280;41718;51.980;5.734;2023-07-16T17:33:03;101204.00;;;21.51;100.00
48790;BME280;41718;51.980;5.734;2023-07-16T17:38:05;101221.16;;;20.91;100.00
48790;BME280;41718;51.980;5.734;2023-07-16T17:43:07;101216.75;;;20.92;100.00
48790;BME280;41718;51.980;5.734;2023-07-16T17:48:09;101237.56;;;20.62;100.00
48790;BME280;41718;51.980;5.734;2023-07-16T17:53:10;101238.50;;;20.60;100.00
48790;BME280;41718;51.980;5.734;2023-07-16T17:58:12;101240.13;;;20.64;100.00
48790;BME280;41718;51.980;5.734;2023-07-16T18:03:14;101233.16;;;20.63;100.00
48790;BME280;41718;51.980;5.734;2023-07-16T18:08:16;101243.69;;;20.63;100.00
48790;BME280;41718;51.980;5.734;2023-07-16T18:13:17;101257.06;;;20.51;100.00
48790;BME280;41718;51.980;5.734;2023-07-16T18:18:19;101260.50;;;20.54;100.00
48790;BME280;41718;51.980;5.734;2023-07-16T18:23:21;101262.69;;;20.29;100.00
48790;BME280;41718;51.980;5.734;2023-07-16T18:28:23;101259.91;;;20.38;100.00
48790;BME280;41718;51.980;5.734;2023-07-16T18:33:25;101262.78;;;20.25;100.00
48790;BME280;41718;51.980;5.734;2023-07-16T18:38:27;101261.13;;;20.19;100.00
48790;BME280;41718;51.980;5.734;2023-07-16T18:43:28;101265.31;;;20.31;100.00
48790;BME280;41718;51.980;5.734;2023-07-16T18:48:31;101259.41;;;20.20;100.00
48790;BME280;41718;51.980;5.734;2023-07-16T18:53:33;101259.63;;;20.06;100.00
48790;BME280;41718;51.980;5.734;2023-07-16T18:58:36;101253.25;;;20.19;100.00
48790;BME280;41718;51.980;5.734;2023-07-16T19:03:38;101263.28;;;19.97;100.00
48790;BME280;41718;51.980;5.734;2023-07-16T19:08:40;101272.94;;;19.95;100.00
48790;BME280;41718;51.980;5.734;2023-07-16T19:13:41;101273.97;;;19.87;100.00
48790;BME280;41718;51.980;5.734;2023-07-16T19:18:43;101261.81;;;19.81;100.00
48790;BME280;41718;51.980;5.734;2023-07-16T19:23:44;101268.97;;;19.71;100.00
48790;BME280;41718;51.980;5.734;2023-07-16T19:28:46;101270.84;;;19.65;100.00
48790;BME280;41718;51.980;5.734;2023-07-16T19:33:48;101260.47;;;19.54;100.00
48790;BME280;41718;51.980;5.734;2023-07-16T19:38:50;101276.31;;;19.48;100.00
48790;BME280;41718;51.980;5.734;2023-07-16T19:43:51;101277.31;;;19.38;100.00
48790;BME280;41718;51.980;5.734;2023-07-16T19:48:53;101285.22;;;19.36;100.00
48790;BME280;41718;51.980;5.734;2023-07-16T19:53:55;101282.66;;;19.31;100.00
48790;BME280;41718;51.980;5.734;2023-07-16T19:58:56;101290.59;;;19.27;100.00
48790;BME280;41718;51.980;5.734;2023-07-16T20:03:58;101304.72;;;19.17;100.00
48790;BME280;41718;51.980;5.734;2023-07-16T20:08:59;101314.47;;;19.09;100.00
48790;BME280;41718;51.980;5.734;2023-07-16T20:14:01;101308.31;;;19.10;100.00
48790;BME280;41718;51.980;5.734;2023-07-16T20:19:02;101304.81;;;19.09;100.00
48790;BME280;41718;51.980;5.734;2023-07-16T20:24:04;101294.34;;;19.09;100.00
48790;BME280;41718;51.980;5.734;2023-07-16T20:29:06;101297.06;;;19.00;100.00
48790;BME280;41718;51.980;5.734;2023-07-16T20:34:09;101302.41;;;18.92;100.00
48790;BME280;41718;51.980;5.734;2023-07-16T20:39:10;101306.88;;;18.86;100.00
48790;BME280;41718;51.980;5.734;2023-07-16T20:44:13;101315.63;;;18.85;100.00
48790;BME280;41718;51.980;5.734;2023-07-16T20:49:14;101318.31;;;18.78;100.00
48790;BME280;41718;51.980;5.734;2023-07-16T20:54:16;101308.75;;;18.74;100.00
48790;BME280;41718;51.980;5.734;2023-07-16T20:59:17;101310.50;;;18.74;100.00
48790;BME280;41718;51.980;5.734;2023-07-16T21:04:19;101314.94;;;18.69;100.00
48790;BME280;41718;51.980;5.734;2023-07-16T21:09:20;101316.72;;;18.62;100.00
48790;BME280;41718;51.980;5.734;2023-07-16T21:14:22;101311.56;;;18.53;100.00
48790;BME280;41718;51.980;5.734;2023-07-16T21:19:23;101299.31;;;18.57;100.00
48790;BME280;41718;51.980;5.734;2023-07-16T21:24:25;101309.00;;;18.47;100.00
48790;BME280;41718;51.980;5.734;2023-07-16T21:29:27;101302.00;;;18.47;100.00
48790;BME280;41718;51.980;5.734;2023-07-16T21:34:28;101315.22;;;18.37;100.00
48790;BME280;41718;51.980;5.734;2023-07-16T21:39:30;101317.09;;;18.27;100.00
48790;BME280;41718;51.980;5.734;2023-07-16T21:44:32;101321.47;;;18.20;100.00
48790;BME280;41718;51.980;5.734;2023-07-16T21:49:34;101314.59;;;18.12;100.00
48790;BME280;41718;51.980;5.734;2023-07-16T21:54:36;101321.63;;;18.07;100.00
48790;BME280;41718;51.980;5.734;2023-07-16T21:59:37;101312.94;;;18.01;100.00
48790;BME280;41718;51.980;5.734;2023-07-16T22:04:39;101327.84;;;17.90;100.00
48790;BME280;41718;51.980;5.734;2023-07-16T22:09:40;101329.72;;;17.76;100.00
48790;BME280;41718;51.980;5.734;2023-07-16T22:14:42;101320.13;;;17.70;100.00
48790;BME280;41718;51.980;5.734;2023-07-16T22:19:44;101324.50;;;17.70;100.00
48790;BME280;41718;51.980;5.734;2023-07-16T22:24:45;101341.06;;;17.72;100.00
48790;BME280;41718;51.980;5.734;2023-07-16T22:29:47;101350.63;;;17.74;100.00
48790;BME280;41718;51.980;5.734;2023-07-16T22:34:48;101353.31;;;17.65;100.00
48790;BME280;41718;51.980;5.734;2023-07-16T22:39:50;101351.63;;;17.51;100.00
48790;BME280;41718;51.980;5.734;2023-07-16T22:44:51;101363.84;;;17.53;100.00
48790;BME280;41718;51.980;5.734;2023-07-16T22:49:53;101362.97;;;17.51;100.00
48790;BME280;41718;51.980;5.734;2023-07-16T22:54:55;101359.50;;;17.46;100.00
48790;BME280;41718;51.980;5.734;2023-07-16T22:59:56;101374.38;;;17.42;100.00
48790;BME280;41718;51.980;5.734;2023-07-16T23:04:58;101390.94;;;17.43;100.00
48790;BME280;41718;51.980;5.734;2023-07-16T23:09:59;101390.06;;;17.38;100.00
48790;BME280;41718;51.980;5.734;2023-07-16T23:15:01;101383.09;;;17.35;100.00
48790;BME280;41718;51.980;5.734;2023-07-16T23:20:05;101388.44;;;17.11;100.00
48790;BME280;41718;51.980;5.734;2023-07-16T23:25:09;101390.22;;;16.84;100.00
48790;BME280;41718;51.980;5.734;2023-07-16T23:30:11;101405.94;;;16.81;100.00
48790;BME280;41718;51.980;5.734;2023-07-16T23:35:13;101424.25;;;16.80;100.00
48790;BME280;41718;51.980;5.734;2023-07-16T23:40:14;101437.28;;;16.66;100.00
48790;BME280;41718;51.980;5.734;2023-07-16T23:45:16;101427.72;;;16.57;100.00
48790;BME280;41718;51.980;5.734;2023-07-16T23:50:18;101434.69;;;16.57;100.00
48790;BME280;41718;51.980;5.734;2023-07-16T23:55:19;101436.41;;;16.44;100.00
